createdAt,value
2019-03-11T00:01:00.987Z,100175.00
2019-03-11T00:03:31.299Z,100165.00
2019-03-11T00:06:03.456Z,100171.00
2019-03-11T00:08:33.974Z,100171.00
2019-03-11T00:11:04.716Z,100158.00
2019-03-11T00:13:35.148Z,100151.00
2019-03-11T00:16:08.038Z,100163.00
2019-03-11T00:18:38.290Z,100148.00
2019-03-11T00:21:08.800Z,100148.00
2019-03-11T00:23:39.173Z,100153.00
2019-03-11T00:26:09.496Z,100140.00
2019-03-11T00:28:39.788Z,100147.00
2019-03-11T00:31:10.267Z,100145.00
2019-03-11T00:33:40.661Z,100137.00
2019-03-11T00:36:12.192Z,100133.00
2019-03-11T00:38:45.967Z,100133.00
2019-03-11T00:41:16.978Z,100142.00
2019-03-11T00:43:47.286Z,100135.00
2019-03-11T00:46:20.019Z,100135.00
2019-03-11T00:48:49.809Z,100137.00
2019-03-11T00:51:20.338Z,100137.00
2019-03-11T00:53:50.955Z,100136.00
2019-03-11T00:56:21.444Z,100133.00
2019-03-11T00:58:51.790Z,100135.00
2019-03-11T01:01:22.115Z,100131.00
2019-03-11T01:03:52.494Z,100139.00
2019-03-11T01:06:22.908Z,100142.00
2019-03-11T01:08:53.514Z,100136.00
2019-03-11T01:11:27.098Z,100134.00
2019-03-11T01:13:58.534Z,100140.00
2019-03-11T01:16:28.788Z,100144.00
2019-03-11T01:18:59.010Z,100133.00
2019-03-11T01:21:29.318Z,100140.00
2019-03-11T01:23:59.890Z,100131.00
2019-03-11T01:26:30.235Z,100140.00
2019-03-11T01:29:00.895Z,100122.00
2019-03-11T01:31:33.824Z,100121.00
2019-03-11T01:34:04.546Z,100114.00
2019-03-11T01:36:37.521Z,100127.00
2019-03-11T01:39:07.935Z,100113.00
2019-03-11T01:41:38.218Z,100123.00
2019-03-11T01:44:08.531Z,100111.00
2019-03-11T01:46:38.944Z,100106.00
2019-03-11T01:49:10.545Z,100111.00
2019-03-11T01:51:43.605Z,100106.00
2019-03-11T01:54:14.056Z,100112.00
2019-03-11T01:56:45.224Z,100106.00
2019-03-11T01:59:15.721Z,100106.00
2019-03-11T02:01:48.365Z,100111.00
2019-03-11T02:04:18.383Z,100107.00
2019-03-11T02:06:48.725Z,100098.00
2019-03-11T02:09:19.686Z,100098.00
2019-03-11T02:11:50.139Z,100103.00
2019-03-11T02:14:20.690Z,100114.00
2019-03-11T02:16:51.121Z,100104.00
2019-03-11T02:19:21.546Z,100100.00
2019-03-11T02:21:51.877Z,100103.00
2019-03-11T02:24:22.266Z,100099.00
2019-03-11T02:26:52.651Z,100114.00
2019-03-11T02:29:24.885Z,100111.00
2019-03-11T02:31:55.594Z,100103.00
2019-03-11T02:34:26.381Z,100101.00
2019-03-11T02:36:57.152Z,100107.00
2019-03-11T02:39:27.593Z,100092.00
2019-03-11T02:41:57.849Z,100106.00
2019-03-11T02:44:28.272Z,100109.00
2019-03-11T02:46:58.757Z,100104.00
2019-03-11T02:49:29.880Z,100102.00
2019-03-11T02:52:00.375Z,100107.00
2019-03-11T02:54:31.007Z,100109.00
2019-03-11T02:57:01.463Z,100112.00
2019-03-11T02:59:32.479Z,100096.00
2019-03-11T03:02:36.987Z,100107.00
2019-03-11T03:05:15.126Z,100117.00
2019-03-11T03:07:47.483Z,100104.00
2019-03-11T03:10:18.145Z,100106.00
2019-03-11T03:12:48.860Z,100108.00
2019-03-11T03:15:19.401Z,100091.00
2019-03-11T03:17:51.213Z,100095.00
2019-03-11T03:20:21.653Z,100091.00
2019-03-11T03:22:51.937Z,100094.00
2019-03-11T03:25:32.940Z,100092.00
2019-03-11T03:27:54.216Z,100081.00
2019-03-11T03:30:26.950Z,100092.00
2019-03-11T03:32:57.102Z,100090.00
2019-03-11T03:35:27.758Z,100095.00
2019-03-11T03:37:58.267Z,100086.00
2019-03-11T03:40:28.594Z,100093.00
2019-03-11T03:42:59.434Z,100092.00
2019-03-11T03:45:35.145Z,100086.00
2019-03-11T03:48:06.155Z,100082.00
2019-03-11T03:50:38.240Z,100093.00
2019-03-11T03:53:08.844Z,100090.00
2019-03-11T03:55:39.362Z,100095.00
2019-03-11T03:58:09.681Z,100083.00
2019-03-11T04:00:42.805Z,100095.00
2019-03-11T04:03:13.367Z,100098.00
2019-03-11T04:05:43.775Z,100101.00
2019-03-11T04:08:14.217Z,100100.00
2019-03-11T04:10:44.509Z,100098.00
2019-03-11T04:13:15.924Z,100109.00
2019-03-11T04:15:46.491Z,100096.00
2019-03-11T04:18:19.963Z,100100.00
2019-03-11T04:20:50.658Z,100093.00
2019-03-11T04:23:21.451Z,100096.00
2019-03-11T04:25:51.779Z,100095.00
2019-03-11T04:28:22.243Z,100101.00
2019-03-11T04:30:52.781Z,100094.00
2019-03-11T04:33:23.103Z,100096.00
2019-03-11T04:35:53.360Z,100091.00
2019-03-11T04:38:23.937Z,100092.00
2019-03-11T04:40:54.391Z,100101.00
2019-03-11T04:43:24.803Z,100098.00
2019-03-11T04:45:55.339Z,100108.00
2019-03-11T04:48:29.939Z,100114.00
2019-03-11T04:51:00.199Z,100110.00
2019-03-11T04:53:30.715Z,100119.00
2019-03-11T04:56:01.174Z,100110.00
2019-03-11T04:58:31.506Z,100099.00
2019-03-11T05:01:01.926Z,100103.00
2019-03-11T05:03:32.117Z,100117.00
2019-03-11T05:06:02.769Z,100115.00
2019-03-11T05:08:33.106Z,100098.00
2019-03-11T05:11:03.491Z,100103.00
2019-03-11T05:13:36.649Z,100110.00
2019-03-11T05:16:06.919Z,100103.00
2019-03-11T05:18:37.576Z,100117.00
2019-03-11T05:21:07.710Z,100101.00
2019-03-11T05:23:37.811Z,100107.00
2019-03-11T05:26:07.950Z,100103.00
2019-03-11T05:28:38.052Z,100108.00
2019-03-11T05:31:08.111Z,100121.00
2019-03-11T05:33:38.328Z,100103.00
2019-03-11T05:36:08.414Z,100097.00
2019-03-11T05:38:38.836Z,100110.00
2019-03-11T05:41:09.055Z,100105.00
2019-03-11T05:43:39.714Z,100106.00
2019-03-11T05:46:11.854Z,100103.00
2019-03-11T05:48:42.157Z,100106.00
2019-03-11T05:51:12.892Z,100114.00
2019-03-11T05:53:44.157Z,100102.00
2019-03-11T05:56:15.129Z,100110.00
2019-03-11T05:58:47.064Z,100109.00
2019-03-11T06:01:17.803Z,100111.00
2019-03-11T06:03:49.858Z,100120.00
2019-03-11T06:06:20.378Z,100111.00
2019-03-11T06:08:51.166Z,100111.00
2019-03-11T06:11:21.636Z,100121.00
2019-03-11T06:13:52.199Z,100127.00
2019-03-11T06:16:23.160Z,100125.00
2019-03-11T06:18:54.382Z,100118.00
2019-03-11T06:21:33.662Z,100116.00
2019-03-11T06:24:05.066Z,100112.00
2019-03-11T06:26:36.014Z,100106.00
2019-03-11T06:29:06.954Z,100114.00
2019-03-11T06:31:37.980Z,100123.00
2019-03-11T06:34:08.688Z,100110.00
2019-03-11T06:36:39.914Z,100120.00
2019-03-11T06:39:11.355Z,100122.00
2019-03-11T06:41:42.386Z,100126.00
2019-03-11T06:44:13.703Z,100109.00
2019-03-11T06:46:46.123Z,100127.00
2019-03-11T06:49:17.744Z,100123.00
2019-03-11T06:51:48.814Z,100122.00
2019-03-11T06:54:19.839Z,100130.00
2019-03-11T06:56:50.842Z,100134.00
2019-03-11T06:59:21.882Z,100119.00
2019-03-11T07:01:52.500Z,100122.00
2019-03-11T07:04:23.336Z,100128.00
2019-03-11T07:06:55.090Z,100112.00
2019-03-11T07:09:26.059Z,100122.00
2019-03-11T07:11:56.770Z,100121.00
2019-03-11T07:14:27.330Z,100119.00
2019-03-11T07:16:57.910Z,100115.00
2019-03-11T07:19:29.750Z,100107.00
2019-03-11T07:22:00.220Z,100109.00
2019-03-11T07:24:31.132Z,100132.00
2019-03-11T07:27:01.774Z,100114.00
2019-03-11T07:29:32.188Z,100130.00
2019-03-11T07:32:02.513Z,100136.00
2019-03-11T07:34:32.884Z,100147.00
2019-03-11T07:37:03.620Z,100149.00
2019-03-11T07:39:34.200Z,100141.00
2019-03-11T07:42:04.868Z,100158.00
2019-03-11T07:44:35.316Z,100147.00
2019-03-11T07:47:05.750Z,100143.00
2019-03-11T07:49:36.472Z,100147.00
2019-03-11T07:52:16.124Z,100153.00
2019-03-11T07:54:46.792Z,100163.00
2019-03-11T07:57:17.615Z,100154.00
2019-03-11T07:59:48.358Z,100156.00
2019-03-11T08:02:18.958Z,100158.00
2019-03-11T08:04:51.520Z,100177.00
2019-03-11T08:07:22.221Z,100150.00
2019-03-11T08:09:52.515Z,100169.00
2019-03-11T08:12:23.159Z,100172.00
2019-03-11T08:14:53.755Z,100167.00
2019-03-11T08:17:26.226Z,100168.00
2019-03-11T08:19:56.967Z,100177.00
2019-03-11T08:22:28.046Z,100180.00
2019-03-11T08:24:58.844Z,100172.00
2019-03-11T08:27:29.520Z,100184.00
2019-03-11T08:29:59.952Z,100182.00
2019-03-11T08:32:30.816Z,100180.00
2019-03-11T08:35:01.482Z,100191.00
2019-03-11T08:37:31.968Z,100184.00
2019-03-11T08:40:02.469Z,100191.00
2019-03-11T08:42:33.100Z,100194.00
2019-03-11T08:45:03.800Z,100188.00
2019-03-11T08:47:34.553Z,100200.00
2019-03-11T08:50:06.346Z,100199.00
2019-03-11T08:52:37.027Z,100198.00
2019-03-11T08:55:07.838Z,100208.00
2019-03-11T08:57:40.206Z,100202.00
2019-03-11T09:00:11.196Z,100205.00
2019-03-11T09:02:41.618Z,100206.00
2019-03-11T09:05:13.927Z,100203.00
2019-03-11T09:07:44.379Z,100204.00
2019-03-11T09:10:15.325Z,100209.00
2019-03-11T09:12:46.214Z,100201.00
2019-03-11T09:15:17.324Z,100222.00
2019-03-11T09:17:48.179Z,100222.00
2019-03-11T09:20:18.722Z,100228.00
2019-03-11T09:22:49.772Z,100227.00
2019-03-11T09:25:22.868Z,100234.00
2019-03-11T09:27:54.445Z,100230.00
2019-03-11T09:30:25.156Z,100239.00
2019-03-11T09:32:57.810Z,100241.00
2019-03-11T09:35:28.617Z,100243.00
2019-03-11T09:37:59.819Z,100247.00
2019-03-11T09:40:31.025Z,100248.00
2019-03-11T09:43:01.893Z,100265.00
2019-03-11T09:45:33.902Z,100262.00
2019-03-11T09:48:04.679Z,100271.00
2019-03-11T09:50:35.731Z,100269.00
2019-03-11T09:53:06.778Z,100263.00
2019-03-11T09:55:38.028Z,100272.00
2019-03-11T09:58:08.737Z,100269.00
2019-03-11T10:00:39.903Z,100275.00
2019-03-11T10:03:10.639Z,100278.00
2019-03-11T10:05:41.686Z,100288.00
2019-03-11T10:08:12.546Z,100284.00
2019-03-11T10:10:43.310Z,100284.00
2019-03-11T10:13:14.123Z,100279.00
2019-03-11T10:15:44.830Z,100285.00
2019-03-11T10:18:15.147Z,100270.00
2019-03-11T10:20:45.883Z,100261.00
2019-03-11T10:23:19.449Z,100283.00
2019-03-11T10:25:50.185Z,100281.00
2019-03-11T10:28:20.875Z,100291.00
2019-03-11T10:30:51.527Z,100295.00
2019-03-11T10:33:22.273Z,100297.00
2019-03-11T10:35:52.746Z,100301.00
2019-03-11T10:38:23.640Z,100278.00
2019-03-11T10:40:54.359Z,100285.00
2019-03-11T10:43:24.997Z,100283.00
2019-03-11T10:45:56.005Z,100291.00
2019-03-11T10:48:36.605Z,100292.00
2019-03-11T10:51:01.408Z,100289.00
2019-03-11T10:53:32.054Z,100297.00
2019-03-11T10:56:02.936Z,100288.00
2019-03-11T10:58:35.320Z,100312.00
2019-03-11T11:01:06.397Z,100314.00
2019-03-11T11:03:36.995Z,100310.00
2019-03-11T11:06:07.903Z,100311.00
2019-03-11T11:08:39.559Z,100307.00
2019-03-11T11:11:10.527Z,100317.00
2019-03-11T11:13:41.786Z,100334.00
2019-03-11T11:16:12.509Z,100336.00
2019-03-11T11:18:43.357Z,100331.00
2019-03-11T11:21:13.949Z,100346.00
2019-03-11T11:23:46.257Z,100339.00
2019-03-11T11:26:17.330Z,100347.00
2019-03-11T11:28:48.316Z,100347.00
2019-03-11T11:31:19.256Z,100344.00
2019-03-11T11:33:49.972Z,100344.00
2019-03-11T11:36:21.287Z,100351.00
2019-03-11T11:38:52.683Z,100355.00
2019-03-11T11:41:23.313Z,100356.00
2019-03-11T11:43:54.101Z,100363.00
2019-03-11T11:46:26.935Z,100360.00
2019-03-11T11:48:57.539Z,100360.00
2019-03-11T11:51:29.969Z,100377.00
2019-03-11T11:54:00.855Z,100369.00
2019-03-11T11:56:31.587Z,100357.00
2019-03-11T11:59:05.071Z,100362.00
2019-03-11T12:01:35.939Z,100363.00
2019-03-11T12:04:06.617Z,100376.00
2019-03-11T12:06:37.393Z,100363.00
2019-03-11T12:09:08.134Z,100379.00
2019-03-11T12:11:38.821Z,100375.00
2019-03-11T12:14:09.831Z,100362.00
2019-03-11T12:16:40.595Z,100382.00
2019-03-11T12:19:11.673Z,100377.00
2019-03-11T12:21:42.470Z,100376.00
2019-03-11T12:24:13.363Z,100394.00
2019-03-11T12:26:46.118Z,100375.00
2019-03-11T12:29:16.890Z,100389.00
2019-03-11T12:31:47.411Z,100383.00
2019-03-11T12:34:18.218Z,100386.00
2019-03-11T12:36:50.626Z,100378.00
2019-03-11T12:39:21.263Z,100382.00
2019-03-11T12:41:52.155Z,100374.00
2019-03-11T12:44:22.970Z,100384.00
2019-03-11T12:46:53.810Z,100378.00
2019-03-11T12:49:24.407Z,100374.00
2019-03-11T12:51:58.370Z,100386.00
2019-03-11T12:54:29.204Z,100391.00
2019-03-11T12:56:59.807Z,100387.00
2019-03-11T12:59:30.639Z,100385.00
2019-03-11T13:02:01.312Z,100398.00
2019-03-11T13:04:31.919Z,100415.00
2019-03-11T13:07:03.033Z,100396.00
2019-03-11T13:09:33.921Z,100411.00
2019-03-11T13:12:08.335Z,100422.00
2019-03-11T13:14:39.328Z,100425.00
2019-03-11T13:17:09.955Z,100423.00
2019-03-11T13:19:40.794Z,100436.00
2019-03-11T13:22:11.327Z,100428.00
2019-03-11T13:24:41.994Z,100434.00
2019-03-11T13:27:15.854Z,100436.00
2019-03-11T13:29:46.434Z,100433.00
2019-03-11T13:32:16.918Z,100438.00
2019-03-11T13:34:47.553Z,100435.00
2019-03-11T13:37:18.556Z,100437.00
2019-03-11T13:39:49.552Z,100416.00
2019-03-11T13:42:19.949Z,100434.00
2019-03-11T13:44:50.615Z,100428.00
2019-03-11T13:47:21.185Z,100418.00
2019-03-11T13:49:51.588Z,100420.00
2019-03-11T13:52:21.991Z,100418.00
2019-03-11T13:54:52.620Z,100409.00
2019-03-11T13:57:23.492Z,100415.00
2019-03-11T13:59:54.582Z,100407.00
2019-03-11T14:02:25.189Z,100399.00
2019-03-11T14:04:56.030Z,100402.00
2019-03-11T14:07:26.681Z,100414.00
2019-03-11T14:09:57.400Z,100412.00
2019-03-11T14:12:28.408Z,100400.00
2019-03-11T14:14:59.358Z,100415.00
2019-03-11T14:17:30.082Z,100404.00
2019-03-11T14:20:01.366Z,100406.00
2019-03-11T14:22:32.168Z,100398.00
2019-03-11T14:25:03.066Z,100408.00
2019-03-11T14:27:33.687Z,100407.00
2019-03-11T14:30:05.066Z,100403.00
2019-03-11T14:32:35.628Z,100406.00
2019-03-11T14:35:07.065Z,100397.00
2019-03-11T14:37:37.755Z,100410.00
2019-03-11T14:40:08.840Z,100403.00
2019-03-11T14:42:39.334Z,100402.00
2019-03-11T14:45:11.996Z,100403.00
2019-03-11T14:47:43.134Z,100395.00
2019-03-11T14:50:14.735Z,100406.00
2019-03-11T14:52:45.267Z,100407.00
2019-03-11T14:55:19.528Z,100427.00
2019-03-11T14:57:50.666Z,100418.00
2019-03-11T15:00:21.924Z,100415.00
2019-03-11T15:02:52.635Z,100413.00
2019-03-11T15:05:23.797Z,100403.00
2019-03-11T15:07:55.070Z,100407.00
2019-03-11T15:10:25.756Z,100413.00
2019-03-11T15:12:56.470Z,100410.00
2019-03-11T15:15:28.602Z,100422.00
2019-03-11T15:17:59.314Z,100438.00
2019-03-11T15:20:29.942Z,100440.00
2019-03-11T15:23:07.760Z,100433.00
2019-03-11T15:25:33.804Z,100417.00
2019-03-11T15:28:04.846Z,100421.00
2019-03-11T15:30:35.872Z,100409.00
2019-03-11T15:33:06.924Z,100408.00
2019-03-11T15:35:37.620Z,100410.00
2019-03-11T15:38:08.354Z,100415.00
2019-03-11T15:40:39.262Z,100426.00
2019-03-11T15:43:09.854Z,100409.00
2019-03-11T15:45:40.934Z,100417.00
2019-03-11T15:48:12.532Z,100427.00
2019-03-11T15:50:43.538Z,100424.00
2019-03-11T15:53:14.962Z,100421.00
2019-03-11T15:55:45.618Z,100404.00
2019-03-11T15:58:16.198Z,100426.00
2019-03-11T16:00:47.177Z,100425.00
2019-03-11T16:03:17.532Z,100419.00
2019-03-11T16:05:48.310Z,100421.00
2019-03-11T16:08:21.228Z,100428.00
2019-03-11T16:10:51.659Z,100422.00
2019-03-11T16:13:22.476Z,100425.00
2019-03-11T16:15:53.210Z,100419.00
2019-03-11T16:18:23.858Z,100432.00
2019-03-11T16:20:57.010Z,100432.00
2019-03-11T16:23:27.490Z,100429.00
2019-03-11T16:25:58.160Z,100424.00
2019-03-11T16:28:28.706Z,100429.00
2019-03-11T16:30:59.371Z,100445.00
2019-03-11T16:33:29.862Z,100445.00
2019-03-11T16:36:00.530Z,100451.00
2019-03-11T16:38:31.362Z,100455.00
2019-03-11T16:41:02.204Z,100464.00
2019-03-11T16:43:32.609Z,100471.00
2019-03-11T16:46:04.624Z,100465.00
2019-03-11T16:48:35.044Z,100479.00
2019-03-11T16:51:06.272Z,100479.00
2019-03-11T16:53:36.678Z,100475.00
2019-03-11T16:56:07.355Z,100473.00
2019-03-11T16:58:37.881Z,100483.00
2019-03-11T17:01:10.554Z,100478.00
2019-03-11T17:03:41.163Z,100482.00
2019-03-11T17:06:12.003Z,100493.00
2019-03-11T17:08:42.322Z,100497.00
2019-03-11T17:11:12.655Z,100505.00
2019-03-11T17:13:43.019Z,100516.00
2019-03-11T17:16:13.435Z,100515.00
2019-03-11T17:18:43.746Z,100523.00
2019-03-11T17:21:16.385Z,100525.00
2019-03-11T17:23:46.603Z,100531.00
2019-03-11T17:26:17.020Z,100538.00
2019-03-11T17:28:47.196Z,100552.00
2019-03-11T17:31:18.848Z,100555.00
2019-03-11T17:33:49.149Z,100552.00
2019-03-11T17:36:19.496Z,100566.00
2019-03-11T17:38:50.237Z,100568.00
2019-03-11T17:41:20.514Z,100577.00
2019-03-11T17:43:50.772Z,100588.00
2019-03-11T17:46:22.305Z,100610.00
2019-03-11T17:48:52.903Z,100614.00
2019-03-11T17:51:23.246Z,100608.00
2019-03-11T17:53:53.625Z,100618.00
2019-03-11T17:56:23.845Z,100629.00
2019-03-11T17:58:55.160Z,100628.00
2019-03-11T18:01:25.435Z,100633.00
2019-03-11T18:03:57.248Z,100644.00
2019-03-11T18:06:28.107Z,100666.00
2019-03-11T18:08:58.391Z,100669.00
2019-03-11T18:11:29.267Z,100688.00
2019-03-11T18:14:00.007Z,100687.00
2019-03-11T18:16:32.064Z,100696.00
2019-03-11T18:19:02.497Z,100713.00
2019-03-11T18:21:32.977Z,100709.00
2019-03-11T18:24:03.333Z,100725.00
2019-03-11T18:26:33.878Z,100730.00
2019-03-11T18:29:04.580Z,100750.00
2019-03-11T18:31:34.947Z,100763.00
2019-03-11T18:34:05.398Z,100767.00
2019-03-11T18:36:35.823Z,100777.00
2019-03-11T18:39:08.807Z,100786.00
2019-03-11T18:41:39.162Z,100792.00
2019-03-11T18:44:09.549Z,100797.00
2019-03-11T18:46:40.617Z,100797.00
2019-03-11T18:49:12.659Z,100808.00
2019-03-11T18:51:43.106Z,100819.00
2019-03-11T18:54:13.515Z,100829.00
2019-03-11T18:56:46.027Z,100835.00
2019-03-11T18:59:19.155Z,100855.00
2019-03-11T19:01:49.772Z,100848.00
2019-03-11T19:04:20.460Z,100864.00
2019-03-11T19:06:52.898Z,100865.00
2019-03-11T19:09:23.404Z,100861.00
2019-03-11T19:11:56.767Z,100852.00
2019-03-11T19:14:27.800Z,100873.00
2019-03-11T19:16:58.484Z,100873.00
2019-03-11T19:19:29.219Z,100900.00
2019-03-11T19:21:59.857Z,100903.00
2019-03-11T19:24:30.549Z,100910.00
2019-03-11T19:27:01.216Z,100918.00
2019-03-11T19:29:32.134Z,100926.00
2019-03-11T19:32:04.289Z,100930.00
2019-03-11T19:34:34.809Z,100948.00
2019-03-11T19:37:07.224Z,100952.00
2019-03-11T19:39:37.829Z,100965.00
2019-03-11T19:42:08.337Z,100971.00
2019-03-11T19:44:39.010Z,100974.00
2019-03-11T19:47:09.410Z,100980.00
2019-03-11T19:49:40.384Z,100996.00
2019-03-11T19:52:11.654Z,101011.00
2019-03-11T19:54:42.180Z,101018.00
2019-03-11T19:57:13.138Z,101018.00
2019-03-11T19:59:43.941Z,101018.00
2019-03-11T20:02:14.518Z,101031.00
2019-03-11T20:04:44.913Z,101032.00
2019-03-11T20:07:15.586Z,101041.00
2019-03-11T20:09:48.137Z,101049.00
2019-03-11T20:12:22.766Z,101049.00
2019-03-11T20:14:52.805Z,101058.00
2019-03-11T20:17:23.222Z,101060.00
2019-03-11T20:20:07.755Z,101070.00
2019-03-11T20:22:40.917Z,101067.00
2019-03-11T20:25:13.996Z,101085.00
2019-03-11T20:27:44.369Z,101099.00
2019-03-11T20:30:17.294Z,101099.00
2019-03-11T20:32:50.969Z,101092.00
2019-03-11T20:35:24.420Z,101094.00
2019-03-11T20:38:00.443Z,101101.00
2019-03-11T20:40:31.366Z,101105.00
2019-03-11T20:43:02.116Z,101106.00
2019-03-11T20:45:32.910Z,101119.00
2019-03-11T20:48:04.669Z,101129.00
2019-03-11T20:50:41.905Z,101139.00
2019-03-11T20:53:07.739Z,101147.00
2019-03-11T20:55:38.301Z,101147.00
2019-03-11T20:58:09.325Z,101156.00
2019-03-11T21:00:39.648Z,101143.00
2019-03-11T21:03:10.423Z,101150.00
2019-03-11T21:05:41.295Z,101142.00
2019-03-11T21:08:11.713Z,101156.00
2019-03-11T21:10:42.194Z,101183.00
2019-03-11T21:13:13.032Z,101183.00
2019-03-11T21:15:43.483Z,101187.00
2019-03-11T21:18:14.539Z,101207.00
2019-03-11T21:20:47.039Z,101198.00
2019-03-11T21:23:18.242Z,101196.00
2019-03-11T21:25:49.859Z,101187.00
2019-03-11T21:28:20.980Z,101189.00
2019-03-11T21:30:51.909Z,101200.00
2019-03-11T21:33:22.662Z,101207.00
2019-03-11T21:35:53.528Z,101199.00
2019-03-11T21:38:24.305Z,101213.00
2019-03-11T21:40:56.638Z,101203.00
2019-03-11T21:43:27.317Z,101215.00
2019-03-11T21:45:57.954Z,101219.00
2019-03-11T21:48:28.487Z,101230.00
2019-03-11T21:51:00.929Z,101234.00
2019-03-11T21:53:33.861Z,101227.00
2019-03-11T21:56:06.842Z,101224.00
2019-03-11T21:58:37.306Z,101221.00
2019-03-11T22:01:09.945Z,101220.00
2019-03-11T22:03:40.449Z,101236.00
2019-03-11T22:06:11.492Z,101255.00
2019-03-11T22:08:41.949Z,101253.00
2019-03-11T22:11:12.914Z,101259.00
2019-03-11T22:13:43.774Z,101257.00
2019-03-11T22:16:14.315Z,101262.00
2019-03-11T22:18:44.872Z,101274.00
2019-03-11T22:21:15.454Z,101274.00
2019-03-11T22:23:45.774Z,101289.00
2019-03-11T22:26:16.308Z,101280.00
2019-03-11T22:28:48.563Z,101289.00
2019-03-11T22:31:19.003Z,101299.00
2019-03-11T22:33:49.482Z,101306.00
2019-03-11T22:36:20.057Z,101309.00
2019-03-11T22:38:52.438Z,101307.00
2019-03-11T22:41:23.118Z,101304.00
2019-03-11T22:43:54.358Z,101316.00
2019-03-11T22:46:25.262Z,101293.00
2019-03-11T22:48:56.119Z,101332.00
2019-03-11T22:51:26.569Z,101327.00
2019-03-11T22:53:57.098Z,101332.00
2019-03-11T22:56:27.563Z,101335.00
2019-03-11T22:58:58.369Z,101328.00
2019-03-11T23:01:29.400Z,101324.00
2019-03-11T23:03:59.949Z,101323.00
2019-03-11T23:06:34.298Z,101322.00
2019-03-11T23:09:10.305Z,101330.00
2019-03-11T23:11:39.857Z,101332.00
2019-03-11T23:14:10.306Z,101342.00
2019-03-11T23:16:42.382Z,101333.00
2019-03-11T23:19:14.007Z,101334.00
2019-03-11T23:21:44.970Z,101347.00
2019-03-11T23:24:15.410Z,101349.00
2019-03-11T23:26:46.010Z,101345.00
2019-03-11T23:29:19.745Z,101344.00
2019-03-11T23:31:51.394Z,101358.00
2019-03-11T23:34:22.911Z,101357.00
2019-03-11T23:36:53.482Z,101347.00
2019-03-11T23:39:24.137Z,101359.00
2019-03-11T23:41:54.567Z,101348.00
2019-03-11T23:44:24.884Z,101355.00
2019-03-11T23:46:55.444Z,101349.00
2019-03-11T23:49:26.004Z,101350.00
2019-03-11T23:51:56.543Z,101363.00
2019-03-11T23:54:27.934Z,101349.00
2019-03-11T23:56:58.451Z,101348.00
2019-03-11T23:59:29.616Z,101345.00
